LZN weather

Matsu Nangan Airport
Nangang Island, Lienchiang County, Taiwan

Public forecast

Using degrees Celsius for public forecast. Weather courtesy of forecast.io.

METAR (pilot weather report)

Closest report is Fuzhou Changle International Airport, 20.9 nm (38.6 km) SW. Retrieved 2019/05/24 18:00 UTC (47 minutes ago):

ZSFZ 241800Z 34002MPS 300V020 9999 SCT021 BKN046 23/19 Q1011 NOSIG

TAF (pilot weather forecast)

Forecast is more than 12 hours old.

Retrieved 2014/06/03 06:15 UTC (5 years ago):

TAF RCFG 030500Z 0306/0324 04010KT 6000 FEW010 BKN032 TEMPO 0306/0312 10005KT 3500 BR FEW008 BKN016 TEMPO 0318/0324 2000 BR SCT005 BKN011